Time;durP1;ratioP1;P1;durP2;ratioP2;P2;SDS_P1;SDS_P2;PMS_P1;PMS_P2;Temp;Humidity;BMP_temperature;BMP_pressure;BME280_temperature;BME280_humidity;BME280_pressure;Samples;Min_cycle;Max_cycle;Signal;HPM_P1;HPM_P2
2022/01/12 00:00:17;;;;;;;4.73;2.93;;;;;;;-1.96;100.00;100876.91;5070932;28;19924;-80
2022/01/12 00:02:44;;;;;;;7.93;3.53;;;;;;;-2.01;100.00;100869.09;5070903;28;20045;-80
2022/01/12 00:05:11;;;;;;;7.53;4.33;;;;;;;-1.93;100.00;100876.78;5070749;28;20408;-80
2022/01/12 00:07:38;;;;;;;7.00;3.97;;;;;;;-1.88;100.00;100866.81;5061535;28;20493;-80
2022/01/12 00:10:06;;;;;;;9.93;4.90;;;;;;;-2.16;100.00;100849.25;5059071;28;20072;-80
2022/01/12 00:12:33;;;;;;;8.10;4.67;;;;;;;-2.06;100.00;100871.09;5063415;28;20143;-80
2022/01/12 00:15:01;;;;;;;7.80;4.60;;;;;;;-2.07;100.00;100869.34;5070366;28;20052;-80
2022/01/12 00:17:28;;;;;;;5.73;3.90;;;;;;;-2.13;100.00;100866.94;5071006;28;20049;-80
2022/01/12 00:19:55;;;;;;;10.93;4.53;;;;;;;-2.30;100.00;100867.63;5070424;28;20057;-80
2022/01/12 00:22:22;;;;;;;7.70;4.37;;;;;;;-2.26;100.00;100869.22;5070710;28;20047;-80
2022/01/12 00:25:11;;;;;;;7.10;4.10;;;;;;;-2.24;100.00;100867.38;5070068;28;20052;-80
2022/01/12 00:33:10;;;;;;;6.87;3.97;;;;;;;-2.27;100.00;100880.81;5059971;28;20055;-80
2022/01/12 00:35:37;;;;;;;6.78;3.58;;;;;;;-2.27;100.00;100880.81;5074885;28;20052;-80
2022/01/12 00:38:04;;;;;;;5.70;3.90;;;;;;;-2.45;100.00;100873.53;5062059;28;20044;-80
2022/01/12 00:40:31;;;;;;;22.03;4.23;;;;;;;-2.45;100.00;100882.41;5073265;28;20048;-80
2022/01/12 00:42:59;;;;;;;5.60;3.30;;;;;;;-2.45;100.00;100892.16;5066072;28;20412;-80
2022/01/12 00:45:27;;;;;;;7.07;4.20;;;;;;;-2.65;100.00;100869.84;5074552;28;20400;-80
2022/01/12 00:47:54;;;;;;;6.10;3.93;;;;;;;-2.54;100.00;100885.44;5073980;28;20481;-80
2022/01/12 00:50:21;;;;;;;6.77;4.40;;;;;;;-2.58;100.00;100879.34;5073773;28;20052;-80
2022/01/12 00:52:50;;;;;;;6.50;3.70;;;;;;;-2.66;100.00;100878.78;5063328;28;20136;-80
2022/01/12 00:55:17;;;;;;;7.25;3.80;;;;;;;-2.60;100.00;100885.66;5074910;28;20106;-80
2022/01/12 00:57:44;;;;;;;10.20;4.47;;;;;;;-2.71;100.00;100867.41;5073523;28;20550;-80
2022/01/12 01:00:12;;;;;;;6.67;4.43;;;;;;;-2.67;100.00;100879.69;5070380;28;20059;-80
2022/01/12 01:02:40;;;;;;;7.10;4.73;;;;;;;-2.77;100.00;100872.97;5073428;28;20048;-79
2022/01/12 01:05:08;;;;;;;7.13;4.30;;;;;;;-2.80;100.00;100873.09;5074564;28;20048;-80
2022/01/12 01:07:35;;;;;;;6.37;4.37;;;;;;;-2.82;100.00;100880.28;5073378;28;20040;-79
2022/01/12 01:10:05;;;;;;;6.83;4.53;;;;;;;-2.79;100.00;100889.00;5074410;28;20332;-79
2022/01/12 01:12:32;;;;;;;;;;;;;;;-2.80;100.00;100889.06;5074421;28;20439;-79
2022/01/12 01:15:06;;;;;;;6.90;4.20;;;;;;;-2.88;100.00;100876.03;5074215;28;19974;-79
2022/01/12 01:25:50;;;;;;;8.17;4.13;;;;;;;-3.00;100.00;100889.81;5073752;28;20173;-79
2022/01/12 01:28:18;;;;;;;6.63;4.40;;;;;;;-3.02;100.00;100885.41;5073229;28;20044;-79
2022/01/12 01:30:46;;;;;;;8.63;5.00;;;;;;;-3.08;100.00;100872.31;5073237;28;20048;-79
2022/01/12 01:33:16;;;;;;;6.07;4.10;;;;;;;-3.20;100.00;100867.47;5069199;28;20440;-79
2022/01/12 01:35:50;;;;;;;8.20;4.90;;;;;;;-3.36;100.00;100866.25;5066856;28;20045;-79
2022/01/12 01:38:17;;;;;;;6.23;4.30;;;;;;;-3.25;100.00;100891.56;5075039;28;20411;-79
2022/01/12 01:40:44;;;;;;;6.40;3.90;;;;;;;-3.21;100.00;100879.91;5073768;28;20451;-79
2022/01/12 01:43:20;;;;;;;9.13;4.93;;;;;;;-3.14;100.00;100882.34;5063255;28;20048;-80
2022/01/12 01:54:03;;;;;;;8.87;4.23;;;;;;;-3.34;100.00;100883.03;5067159;28;20166;-80
2022/01/12 01:56:30;;;;;;;6.63;4.10;;;;;;;-3.40;100.00;100878.81;5073222;28;20091;-80
2022/01/12 01:58:58;;;;;;;8.37;4.47;;;;;;;-3.37;100.00;100881.38;5069822;28;20396;-80
2022/01/12 02:01:25;;;;;;;8.07;4.07;;;;;;;-3.36;100.00;100879.56;5069239;28;20056;-80
2022/01/12 02:03:54;;;;;;;6.43;3.87;;;;;;;-3.43;100.00;100900.19;5072310;28;20055;-80
2022/01/12 02:06:24;;;;;;;6.22;4.18;;;;;;;-3.39;100.00;100908.00;5072963;28;20048;-80
2022/01/12 02:08:51;;;;;;;8.10;4.30;;;;;;;-3.46;100.00;100903.81;5073000;28;20051;-80
2022/01/12 02:11:18;;;;;;;6.70;4.27;;;;;;;-3.48;100.00;100926.06;5071380;28;20488;-80
2022/01/12 02:13:45;;;;;;;7.70;4.30;;;;;;;-3.51;100.00;100918.19;5064511;28;20056;-79
2022/01/12 02:16:12;;;;;;;5.60;3.63;;;;;;;-3.50;100.00;100914.63;5067485;28;20049;-80
2022/01/12 02:19:05;;;;;;;6.23;4.37;;;;;;;-3.47;100.00;100915.38;5053275;28;20476;-80
2022/01/12 02:35:43;;;;;;;9.47;5.10;;;;;;;-3.58;100.00;100901.59;5072869;28;20087;-80
2022/01/12 02:40:56;;;;;;;11.93;4.50;;;;;;;-3.62;100.00;100890.16;5070640;28;20056;-80
2022/01/12 02:43:39;;;;;;;10.77;5.40;;;;;;;-3.70;100.00;100876.28;5067631;28;20068;-79
2022/01/12 02:53:37;;;;;;;7.60;4.53;;;;;;;-3.90;100.00;100879.59;5061342;28;20094;-79
2022/01/12 02:54:22;;;;;;;9.17;4.57;;;;;;;-3.96;100.00;100883.34;5065256;28;20045;-80
2022/01/12 02:56:49;;;;;;;6.77;3.67;;;;;;;-3.80;100.00;100907.59;5065825;28;20170;-80
2022/01/12 02:59:16;;;;;;;10.80;4.37;;;;;;;-3.88;100.00;100901.69;5058024;28;20041;-79
2022/01/12 03:04:29;;;;;;;10.00;4.33;;;;;;;-3.91;100.00;100915.06;5064429;28;20056;-80
2022/01/12 03:07:04;;;;;;;9.10;4.77;;;;;;;-3.85;100.00;100911.31;5072073;28;20041;-80
2022/01/12 03:09:32;;;;;;;6.17;3.90;;;;;;;-3.86;100.00;100904.28;5072454;28;20060;-80
2022/01/12 03:11:59;;;;;;;9.20;4.40;;;;;;;-3.87;100.00;100915.84;5064991;28;20045;-80
2022/01/12 03:14:26;;;;;;;6.87;4.13;;;;;;;-3.94;100.00;100901.91;5058119;28;20053;-80
2022/01/12 03:16:54;;;;;;;8.77;4.20;;;;;;;-3.96;100.00;100901.06;5070629;28;20036;-80
2022/01/12 03:19:21;;;;;;;7.30;4.67;;;;;;;-3.98;100.00;100892.28;5070830;28;20452;-79
2022/01/12 03:21:48;;;;;;;9.07;4.07;;;;;;;-4.00;100.00;100905.59;5066984;28;20044;-80
2022/01/12 03:24:15;;;;;;;8.90;4.90;;;;;;;-3.99;100.00;100907.34;5072155;28;20040;-80
2022/01/12 03:26:43;;;;;;;6.57;4.47;;;;;;;-4.09;100.00;100916.53;5069544;28;20044;-80
2022/01/12 03:29:10;;;;;;;8.10;4.30;;;;;;;-4.16;100.00;100922.94;5068045;28;20056;-80
2022/01/12 03:31:37;;;;;;;5.77;4.30;;;;;;;-4.21;100.00;100925.75;5071241;28;20126;-80
2022/01/12 03:34:09;;;;;;;7.37;4.20;;;;;;;-4.09;100.00;100933.34;5071773;28;20054;-80
2022/01/12 03:36:54;;;;;;;7.23;4.67;;;;;;;-4.09;100.00;100933.34;5069205;28;20045;-80
2022/01/12 03:39:22;;;;;;;6.40;3.93;;;;;;;-4.15;100.00;100930.88;5069601;28;20060;-80
2022/01/12 03:41:50;;;;;;;7.07;4.17;;;;;;;-4.28;100.00;100921.53;5069972;28;20048;-80
2022/01/12 03:44:18;;;;;;;8.00;3.50;;;;;;;-4.33;100.00;100907.56;5071204;28;20053;-80
2022/01/12 03:46:48;;;;;;;10.50;4.47;;;;;;;-4.26;100.00;100911.72;5060594;28;20049;-80
2022/01/12 03:49:15;;;;;;;;;;;;;;;-4.29;100.00;100930.41;5064388;28;20171;-80
2022/01/12 03:51:42;;;;;;;8.33;3.53;;;;;;;-4.29;100.00;100927.75;5068187;28;19924;-80
2022/01/12 03:54:09;;;;;;;5.63;4.07;;;;;;;-4.21;100.00;100946.16;5063548;28;20408;-80
2022/01/12 03:56:37;;;;;;;7.87;4.70;;;;;;;-4.25;100.00;100948.00;5067498;28;20052;-79
2022/01/12 03:59:07;;;;;;;7.63;4.20;;;;;;;-4.24;100.00;100956.88;5073027;28;20496;-80
2022/01/12 04:01:35;;;;;;;7.43;4.90;;;;;;;-4.33;100.00;100958.88;5069557;28;20049;-80
2022/01/12 04:04:04;;;;;;;9.33;4.53;;;;;;;-4.42;100.00;100958.28;5071049;28;20072;-80
2022/01/12 04:09:16;;;;;;;11.33;4.80;;;;;;;-4.50;100.00;100947.88;5072716;28;20056;-79
2022/01/12 04:11:44;;;;;;;9.37;5.47;;;;;;;-4.50;100.00;100934.59;5064132;28;20519;-80
2022/01/12 04:14:12;;;;;;;8.03;4.97;;;;;;;-4.51;100.00;100931.06;5075125;28;20500;-81
2022/01/12 04:16:41;;;;;;;9.20;4.83;;;;;;;-4.52;100.00;100929.31;5074498;28;20498;-80
2022/01/12 04:19:08;;;;;;;11.10;5.63;;;;;;;-4.53;100.00;100919.66;5075441;28;20391;-81
2022/01/12 04:21:41;;;;;;;10.67;4.63;;;;;;;-4.54;100.00;100928.50;5068651;28;20045;-80
2022/01/12 04:24:09;;;;;;;7.40;4.43;;;;;;;-4.60;100.00;100928.69;5070637;28;20072;-80
2022/01/12 04:26:36;;;;;;;11.67;5.03;;;;;;;-4.64;100.00;100927.03;5059721;28;20400;-81
2022/01/12 04:29:03;;;;;;;9.00;5.40;;;;;;;-4.61;100.00;100942.88;5067838;28;20044;-80
2022/01/12 04:31:32;;;;;;;10.70;5.20;;;;;;;-4.72;100.00;100929.06;5073960;28;20048;-81
2022/01/12 04:33:59;;;;;;;9.50;4.90;;;;;;;-4.72;100.00;100945.84;5074817;28;20055;-80
2022/01/12 04:36:26;;;;;;;9.93;4.87;;;;;;;-4.59;100.00;100945.47;5075089;28;20040;-80
2022/01/12 04:38:53;;;;;;;7.70;4.97;;;;;;;-4.58;100.00;100934.81;5075074;28;20052;-80
2022/01/12 04:41:21;;;;;;;8.57;5.13;;;;;;;-4.56;100.00;100934.78;5074962;28;20048;-80
2022/01/12 04:43:48;;;;;;;7.13;4.37;;;;;;;-4.58;100.00;100941.94;5058534;28;20064;-80
2022/01/12 04:46:26;;;;;;;10.10;5.93;;;;;;;-4.52;100.00;100942.59;5055876;28;20460;-80
2022/01/12 04:49:08;;;;;;;12.10;5.23;;;;;;;-4.52;100.00;100939.94;5062975;28;20053;-80
2022/01/12 04:51:36;;;;;;;7.37;4.53;;;;;;;-4.65;100.00;100950.06;5060442;28;20057;-80
2022/01/12 04:54:03;;;;;;;12.27;4.83;;;;;;;-4.63;100.00;100950.03;5055897;28;20382;-80
2022/01/12 04:56:30;;;;;;;10.43;5.10;;;;;;;-4.58;100.00;100964.00;5058795;28;20127;-80
2022/01/12 04:58:58;;;;;;;8.67;4.77;;;;;;;-4.58;100.00;100979.09;5073482;28;20044;-80
2022/01/12 05:01:27;;;;;;;11.17;4.80;;;;;;;-4.58;100.00;100990.56;5070205;28;20044;-80
2022/01/12 05:06:55;;;;;;;6.43;3.93;;;;;;;-4.64;100.00;100988.09;5073914;28;20051;-79
2022/01/12 05:09:44;;;;;;;7.37;4.13;;;;;;;-4.76;100.00;100993.75;5074374;28;20063;-80
2022/01/12 05:15:05;;;;;;;9.83;3.97;;;;;;;-4.75;100.00;100982.22;5068028;28;20055;-83
2022/01/12 05:17:34;;;;;;;9.00;5.00;;;;;;;-4.65;100.00;101005.81;5061475;28;20098;-81
2022/01/12 05:20:02;;;;;;;9.83;4.30;;;;;;;-4.67;100.00;100999.66;5067369;28;20110;-80
2022/01/12 05:22:29;;;;;;;7.17;4.60;;;;;;;-4.70;100.00;100993.56;5071116;28;20044;-81
2022/01/12 05:24:56;;;;;;;8.73;4.87;;;;;;;-4.77;100.00;101000.84;5075012;28;20053;-82
2022/01/12 05:27:23;;;;;;;7.13;4.43;;;;;;;-4.83;100.00;100993.06;5069875;28;20133;-82
2022/01/12 05:29:50;;;;;;;8.53;4.90;;;;;;;-4.89;100.00;101006.47;5072670;28;20044;-82
2022/01/12 05:32:23;;;;;;;9.30;5.00;;;;;;;-4.85;100.00;101008.13;5067660;28;20048;-82
2022/01/12 05:34:57;;;;;;;8.70;4.93;;;;;;;-4.84;100.00;101021.34;5074800;28;20051;-82
2022/01/12 05:37:27;;;;;;;7.97;4.67;;;;;;;-4.95;100.00;100996.00;5074538;28;20051;-82
2022/01/12 05:39:54;;;;;;;8.57;4.67;;;;;;;-4.91;100.00;101008.28;5073104;28;20072;-82
2022/01/12 05:42:23;;;;;;;6.73;4.23;;;;;;;-5.10;100.00;100982.28;5072108;28;20044;-82
2022/01/12 05:44:50;;;;;;;7.35;5.18;;;;;;;-5.00;100.00;100998.78;5071789;28;20045;-82
2022/01/12 05:47:35;;;;;;;8.13;4.33;;;;;;;-5.09;100.00;100981.34;5069220;28;20055;-82
2022/01/12 05:50:01;;;;;;;9.10;4.97;;;;;;;-4.96;100.00;101002.25;5073129;28;20129;-82
2022/01/12 05:52:30;;;;;;;8.90;4.83;;;;;;;-4.83;100.00;101022.25;5072140;28;20484;-82
2022/01/12 05:54:57;;;;;;;9.57;4.83;;;;;;;-5.08;100.00;101011.41;5058040;28;20044;-83
2022/01/12 05:57:25;;;;;;;9.60;4.83;;;;;;;-5.11;100.00;101030.91;5063667;28;20045;-82
2022/01/12 05:59:52;;;;;;;9.47;4.90;;;;;;;-4.99;100.00;101054.47;5069157;28;20138;-82
2022/01/12 06:02:19;;;;;;;7.93;4.70;;;;;;;-4.95;100.00;101057.91;5058325;28;20492;-82
2022/01/12 06:04:46;;;;;;;9.03;5.40;;;;;;;-5.04;100.00;101032.50;5055880;28;20151;-82
2022/01/12 06:07:13;;;;;;;11.10;5.77;;;;;;;-4.96;100.00;101042.03;5072568;28;20135;-82
2022/01/12 06:09:41;;;;;;;10.97;5.70;;;;;;;-5.02;100.00;101027.16;5063086;28;20108;-83
2022/01/12 06:12:09;;;;;;;8.27;4.80;;;;;;;-5.03;100.00;101036.00;5072669;28;20398;-83
2022/01/12 06:14:38;;;;;;;8.73;5.27;;;;;;;-5.10;100.00;101042.38;5062129;28;20059;-82
2022/01/12 06:17:05;;;;;;;9.60;5.00;;;;;;;-5.01;100.00;101045.69;5064662;28;20047;-83
2022/01/12 06:19:32;;;;;;;9.73;4.87;;;;;;;-5.16;100.00;101036.34;5068376;28;20235;-83
2022/01/12 06:22:03;;;;;;;11.27;5.60;;;;;;;-5.14;100.00;101038.94;5063411;28;20049;-83
2022/01/12 06:24:30;;;;;;;8.77;4.47;;;;;;;-5.28;100.00;101027.81;5057620;28;20052;-83
2022/01/12 06:27:09;;;;;;;11.00;4.80;;;;;;;-5.25;100.00;101047.19;5059274;28;20058;-83
2022/01/12 06:29:42;;;;;;;7.50;3.92;;;;;;;-5.13;100.00;101051.31;5071255;28;20488;-82
2022/01/12 06:32:22;;;;;;;12.60;4.67;;;;;;;-5.28;100.00;101025.16;5070517;28;20455;-82
2022/01/12 06:34:53;;;;;;;;;;;;;;;-5.21;100.00;101032.03;5071395;28;20140;-83
2022/01/12 06:37:37;;;;;;;9.53;4.23;;;;;;;-5.32;100.00;101026.16;5069965;28;19942;-82
2022/01/12 06:40:05;;;;;;;8.47;4.37;;;;;;;-5.38;100.00;101021.88;5064177;28;20473;-82
2022/01/12 06:42:39;;;;;;;8.10;5.20;;;;;;;-5.28;100.00;101036.66;5071618;28;20045;-82
2022/01/12 06:45:08;;;;;;;9.10;4.13;;;;;;;-5.19;100.00;101032.91;5071949;28;20044;-82
2022/01/12 06:47:36;;;;;;;6.30;4.27;;;;;;;-5.37;100.00;101013.03;5070731;28;20127;-83
2022/01/12 06:50:06;;;;;;;9.40;4.57;;;;;;;-5.30;100.00;101030.50;5070496;28;20275;-83
2022/01/12 06:52:34;;;;;;;9.30;4.53;;;;;;;-5.31;100.00;101030.53;5070558;28;20452;-82
2022/01/12 06:55:03;;;;;;;6.88;4.60;;;;;;;-5.40;100.00;101027.22;5068023;28;20060;-82
2022/01/12 06:57:33;;;;;;;8.80;5.32;;;;;;;-5.36;100.00;101020.03;5066119;28;20510;-82
2022/01/12 07:00:02;;;;;;;11.93;5.53;;;;;;;-5.29;100.00;101023.44;5070104;28;20138;-82
2022/01/12 07:02:29;;;;;;;11.47;6.03;;;;;;;-5.24;100.00;101027.72;5060651;28;20052;-82
2022/01/12 07:04:56;;;;;;;7.83;4.73;;;;;;;-5.19;100.00;101024.94;5071225;28;20056;-83
2022/01/12 07:07:24;;;;;;;16.10;5.40;;;;;;;-5.09;100.00;101030.88;5071232;28;20052;-82
2022/01/12 07:09:54;;;;;;;10.57;6.13;;;;;;;-4.98;100.00;101044.75;5068405;28;20072;-83
2022/01/12 07:12:21;;;;;;;15.87;6.67;;;;;;;-4.95;100.00;101023.44;5070100;28;20048;-82
2022/01/12 07:14:48;;;;;;;13.37;6.83;;;;;;;-4.78;100.00;101044.19;5060866;28;20118;-82
2022/01/12 07:17:27;;;;;;;11.20;6.67;;;;;;;-4.88;100.00;101027.63;5066447;28;20389;-83
2022/01/12 07:19:54;;;;;;;10.23;5.63;;;;;;;-4.68;100.00;101039.50;5060795;28;20052;-82
2022/01/12 07:22:21;;;;;;;12.70;5.53;;;;;;;-4.63;100.00;101034.97;5072662;28;20044;-83
2022/01/12 07:24:48;;;;;;;15.90;5.57;;;;;;;-4.56;100.00;101046.25;5069899;28;20055;-82
2022/01/12 07:27:15;;;;;;;11.97;6.73;;;;;;;-4.30;100.00;101064.13;5060732;28;20045;-83
2022/01/12 07:29:43;;;;;;;12.30;7.23;;;;;;;-4.15;100.00;101065.47;5067891;28;20067;-83
2022/01/12 07:32:10;;;;;;;12.93;6.37;;;;;;;-4.17;100.00;101064.63;5066756;28;20514;-83
2022/01/12 07:34:38;;;;;;;12.20;6.27;;;;;;;-4.07;100.00;101082.06;5066758;28;20436;-83
2022/01/12 07:37:05;;;;;;;15.90;7.40;;;;;;;-4.06;100.00;101085.56;5069063;28;20067;-83
2022/01/12 07:39:32;;;;;;;14.07;7.23;;;;;;;-4.06;100.00;101082.91;5064246;28;20056;-83
2022/01/12 07:41:59;;;;;;;16.37;8.20;;;;;;;-3.91;100.00;101104.59;5067314;28;20052;-83
2022/01/12 07:44:26;;;;;;;16.67;8.27;;;;;;;-3.82;100.00;101114.09;5074403;28;20067;-83
2022/01/12 07:46:53;;;;;;;15.30;6.73;;;;;;;-4.06;100.00;101126.31;5075594;28;20400;-83
2022/01/12 07:49:20;;;;;;;9.80;6.43;;;;;;;-4.11;100.00;101120.25;5074130;28;20052;-83
2022/01/12 07:51:49;;;;;;;11.73;6.00;;;;;;;-4.11;100.00;101144.16;5075312;28;20457;-83
2022/01/12 07:54:15;;;;;;;15.17;9.13;;;;;;;-4.02;100.00;101154.53;5064324;28;20047;-83
2022/01/12 07:56:42;;;;;;;15.40;8.90;;;;;;;-3.98;100.00;101131.41;5072977;28;20049;-83
2022/01/12 07:59:09;;;;;;;16.00;8.23;;;;;;;-3.80;100.00;101143.28;5073669;28;20381;-83
2022/01/12 08:01:36;;;;;;;17.73;9.23;;;;;;;-3.75;100.00;101138.69;5064267;28;20055;-83
2022/01/12 08:04:04;;;;;;;19.60;9.40;;;;;;;-3.61;100.00;101136.50;5069984;28;20059;-83
2022/01/12 08:06:30;;;;;;;14.20;8.37;;;;;;;-3.59;100.00;101123.16;5074500;28;20051;-83
2022/01/12 08:08:59;;;;;;;11.93;8.07;;;;;;;-3.53;100.00;101125.63;5073269;28;20488;-83
2022/01/12 08:11:26;;;;;;;13.60;6.83;;;;;;;-3.52;100.00;101137.13;5072212;28;20059;-84
2022/01/12 08:13:56;;;;;;;15.67;8.37;;;;;;;-3.64;100.00;101141.94;5063413;28;20053;-83
2022/01/12 08:16:24;;;;;;;16.98;9.02;;;;;;;-3.53;100.00;101152.22;5059615;28;20056;-83
2022/01/12 08:18:51;;;;;;;19.27;7.73;;;;;;;-3.53;100.00;101138.94;5072325;28;20044;-83
2022/01/12 08:21:18;;;;;;;18.53;8.10;;;;;;;-3.50;100.00;101152.13;5075678;28;20048;-83
2022/01/12 08:23:46;;;;;;;13.43;7.43;;;;;;;-3.42;100.00;101141.25;5074522;28;20044;-83
2022/01/12 08:26:14;;;;;;;12.30;7.00;;;;;;;-3.32;100.00;101160.47;5064294;28;20037;-83
2022/01/12 08:28:41;;;;;;;13.50;7.63;;;;;;;-3.37;100.00;101131.38;5070128;28;20044;-83
2022/01/12 08:31:10;;;;;;;13.77;7.67;;;;;;;-3.30;100.00;101124.06;5072312;28;20048;-83
2022/01/12 08:33:37;;;;;;;14.95;8.02;;;;;;;-3.21;100.00;101143.28;5074644;28;20048;-83
2022/01/12 08:36:05;;;;;;;14.77;7.97;;;;;;;-3.18;100.00;101152.06;5070873;28;20052;-83
2022/01/12 08:38:32;;;;;;;14.50;8.63;;;;;;;-3.29;100.00;101144.44;5066314;28;20561;-83
2022/01/12 08:40:59;;;;;;;16.13;8.33;;;;;;;-3.24;100.00;101154.00;5075395;28;20044;-82
2022/01/12 08:43:28;;;;;;;15.27;7.80;;;;;;;-3.39;100.00;101149.16;5073885;28;20045;-84
2022/01/12 08:45:55;;;;;;;14.53;7.90;;;;;;;-3.22;100.00;101154.81;5067420;28;20477;-84
2022/01/12 08:48:22;;;;;;;17.20;8.13;;;;;;;-3.25;100.00;101149.59;5074274;28;20119;-84
2022/01/12 08:50:49;;;;;;;16.77;8.77;;;;;;;-3.18;100.00;101154.72;5072373;28;20075;-83
2022/01/12 08:53:18;;;;;;;20.47;9.00;;;;;;;-2.99;100.00;101134.59;5072368;28;20457;-83
2022/01/12 08:55:45;;;;;;;18.60;8.97;;;;;;;-2.92;100.00;101135.25;5066898;28;20057;-83
2022/01/12 08:58:12;;;;;;;15.93;8.80;;;;;;;-2.90;100.00;101125.44;5065461;28;20408;-83
2022/01/12 09:00:41;;;;;;;15.77;8.70;;;;;;;-2.85;100.00;101127.00;5072938;28;20124;-84
2022/01/12 09:03:08;;;;;;;16.43;8.73;;;;;;;-2.80;100.00;101139.31;5067433;28;20052;-83
2022/01/12 09:05:35;;;;;;;13.57;7.60;;;;;;;-2.69;100.00;101151.34;5069697;28;20060;-84
2022/01/12 09:08:02;;;;;;;16.70;10.43;;;;;;;-2.64;100.00;101166.28;5071909;28;20055;-82
2022/01/12 09:10:29;;;;;;;16.83;9.43;;;;;;;-2.68;100.00;101153.09;5073454;28;20041;-83
2022/01/12 09:12:56;;;;;;;14.43;9.27;;;;;;;-2.62;100.00;101162.66;5068280;28;20131;-83
2022/01/12 09:15:25;;;;;;;16.07;8.17;;;;;;;-2.46;100.00;101189.63;5063608;28;20068;-83
2022/01/12 09:17:56;;;;;;;15.47;9.10;;;;;;;-2.45;100.00;101177.19;5064429;28;20390;-83
2022/01/12 09:20:24;;;;;;;18.33;8.80;;;;;;;-2.39;100.00;101185.84;5073540;28;20447;-83
2022/01/12 09:22:52;;;;;;;15.73;8.20;;;;;;;-2.24;100.00;101192.44;5070211;28;20052;-83
2022/01/12 09:25:20;;;;;;;16.40;8.33;;;;;;;-2.26;100.00;101172.94;5073453;28;20067;-83
2022/01/12 09:27:47;;;;;;;16.00;8.17;;;;;;;-2.24;100.00;101168.47;5064657;28;20060;-83
2022/01/12 09:30:15;;;;;;;13.93;7.53;;;;;;;-2.06;100.00;101195.38;5067454;28;20047;-82
2022/01/12 09:32:44;;;;;;;14.80;8.87;;;;;;;-2.25;100.00;101164.03;5068490;28;20468;-86
2022/01/12 09:35:13;;;;;;;16.33;9.83;;;;;;;-2.07;100.00;101177.66;5074398;28;20052;-83
2022/01/12 09:37:40;;;;;;;15.48;9.48;;;;;;;-1.99;100.00;101210.22;5070421;28;20040;-85
2022/01/12 09:40:09;;;;;;;16.60;9.13;;;;;;;-1.92;100.00;101218.88;5072100;28;20076;-86
2022/01/12 09:42:37;;;;;;;19.67;10.27;;;;;;;-1.99;100.00;101220.88;5062335;28;20496;-87
2022/01/12 09:45:14;;;;;;;19.40;9.13;;;;;;;-1.86;100.00;101221.34;5069599;28;20103;-83
2022/01/12 09:47:42;;;;;;;17.83;8.87;;;;;;;-1.80;100.00;101234.44;5068839;28;20063;-83
2022/01/12 09:50:17;;;;;;;17.93;8.53;;;;;;;-1.79;100.00;101221.06;5061215;28;20044;-82
2022/01/12 09:52:44;;;;;;;19.53;10.30;;;;;;;-1.65;100.00;101235.69;5067284;28;20496;-83
2022/01/12 09:55:12;;;;;;;15.17;9.13;;;;;;;-1.60;100.00;101223.03;5063596;28;20047;-82
2022/01/12 10:01:01;;;;;;;15.20;8.50;;;;;;;-1.38;100.00;101233.78;5011881;28;20792;-82
2022/01/12 10:03:34;;;;;;;18.07;8.70;;;;;;;-1.38;100.00;101223.13;5071479;28;20040;-83
2022/01/12 10:06:15;;;;;;;15.67;7.93;;;;;;;-1.39;100.00;101207.16;5071588;28;20435;-81
2022/01/12 10:08:57;;;;;;;17.87;8.80;;;;;;;-1.26;100.00;101237.81;5073353;28;20054;-82
2022/01/12 10:11:24;;;;;;;13.27;8.27;;;;;;;-1.14;100.00;101225.78;5062541;28;20406;-82
2022/01/12 10:13:56;;;;;;;16.07;7.33;;;;;;;-1.40;100.00;101235.66;5072889;28;20071;-83
2022/01/12 10:16:26;;;;;;;13.90;7.30;;;;;;;-1.60;100.00;101225.72;5067926;28;20447;-81
2022/01/12 10:19:26;;;;;;;11.65;7.30;;;;;;;-1.37;100.00;101232.88;5060113;28;20045;-83
2022/01/12 10:21:55;;;;;;;15.93;8.37;;;;;;;-1.33;100.00;101233.63;5064735;28;20045;-83
2022/01/12 10:24:22;;;;;;;14.25;7.78;;;;;;;-1.13;100.00;101239.06;5069424;28;20045;-82
2022/01/12 10:26:51;;;;;;;14.97;8.57;;;;;;;-1.10;100.00;101232.72;5072798;28;20060;-82
2022/01/12 10:29:24;;;;;;;13.18;7.50;;;;;;;-0.86;100.00;101248.72;5064246;28;20045;-82
2022/01/12 10:31:55;;;;;;;13.90;7.57;;;;;;;-1.05;100.00;101232.53;5062255;28;20049;-82
2022/01/12 10:34:27;;;;;;;13.77;7.30;;;;;;;-1.13;100.00;101224.84;5054716;28;20080;-82
2022/01/12 10:36:57;;;;;;;19.50;8.30;;;;;;;-1.02;100.00;101248.44;5056034;28;20140;-82
2022/01/12 10:39:27;;;;;;;15.83;8.57;;;;;;;-0.97;100.00;101247.34;5059260;28;20055;-82
2022/01/12 10:41:57;;;;;;;14.65;7.13;;;;;;;-0.96;100.00;101242.88;5068689;28;20059;-82
2022/01/12 10:44:31;;;;;;;14.30;7.40;;;;;;;-1.02;100.00;101243.09;5071215;28;20041;-82
2022/01/12 10:47:16;;;;;;;15.93;8.23;;;;;;;-0.99;100.00;101243.00;5061938;28;20040;-82
2022/01/12 10:49:47;;;;;;;20.83;8.27;;;;;;;-0.80;100.00;101238.69;5064747;28;20060;-81
2022/01/12 10:52:17;;;;;;;14.87;7.33;;;;;;;-0.63;99.24;101240.66;5067179;28;20044;-81
2022/01/12 10:54:47;;;;;;;;;;;;;;;-0.54;98.65;101239.44;5068452;28;20110;-81
2022/01/12 10:57:23;;;;;;;12.47;7.77;;;;;;;-0.80;99.19;101216.44;5067790;28;19927;-81
2022/01/12 11:00:07;;;;;;;12.73;7.73;;;;;;;-0.64;98.30;101233.56;5065904;28;20507;-81
2022/01/12 11:02:36;;;;;;;11.23;7.20;;;;;;;-0.62;100.00;101226.34;5067365;28;20056;-81
2022/01/12 11:05:09;;;;;;;13.50;7.73;;;;;;;-0.61;100.00;101219.22;5068707;28;20535;-81
2022/01/12 11:07:38;;;;;;;12.50;7.17;;;;;;;-0.38;97.35;101234.31;5068226;28;20051;-81
2022/01/12 11:10:08;;;;;;;12.77;7.00;;;;;;;-0.35;95.45;101223.47;5064340;28;20049;-80
2022/01/12 11:12:36;;;;;;;8.07;5.15;;;;;;;-0.16;94.55;101220.06;5070875;28;20045;-82
2022/01/12 11:15:06;;;;;;;10.20;5.93;;;;;;;-0.18;93.09;101214.78;5071700;28;20084;-81
2022/01/12 11:17:33;;;;;;;;;;;;;;;-0.04;93.60;101216.84;5070027;28;20054;-81
2022/01/12 11:20:09;;;;;;;10.17;6.37;;;;;;;-0.04;92.24;101206.16;5056484;28;19925;-81
2022/01/12 11:22:50;;;;;;;9.30;5.73;;;;;;;-0.04;91.90;101190.09;5068994;28;20060;-81
2022/01/12 11:25:20;;;;;;;11.43;6.33;;;;;;;-0.03;91.70;101192.72;5070451;28;20091;-81
2022/01/12 11:27:51;;;;;;;10.77;6.22;;;;;;;0.02;92.88;101191.66;5068016;28;20089;-81
2022/01/12 11:30:20;;;;;;;11.10;5.95;;;;;;;0.01;93.57;101185.41;5066726;28;20040;-81
2022/01/12 11:32:56;;;;;;;9.63;5.65;;;;;;;0.00;91.25;101170.31;5069755;28;20055;-81
2022/01/12 11:35:27;;;;;;;10.83;6.67;;;;;;;-0.09;93.18;101151.97;5065606;28;20048;-81
2022/01/12 11:37:59;;;;;;;11.17;7.40;;;;;;;-0.05;96.00;101159.78;5069386;28;20500;-81
2022/01/12 11:40:37;;;;;;;12.48;7.35;;;;;;;-0.08;97.28;101172.44;5066737;28;20048;-81
2022/01/12 11:43:06;;;;;;;14.18;8.05;;;;;;;-0.13;98.03;101153.94;5070409;28;20049;-81
2022/01/12 11:45:33;;;;;;;12.88;7.57;;;;;;;-0.09;99.97;101157.31;5070708;28;20052;-81
2022/01/12 11:48:00;;;;;;;13.18;8.27;;;;;;;-0.10;100.00;101148.44;5067359;28;20048;-81
2022/01/12 11:50:27;;;;;;;14.57;8.60;;;;;;;-0.08;100.00;101141.22;5068085;28;20056;-81
2022/01/12 11:52:55;;;;;;;14.50;7.88;;;;;;;0.07;100.00;101136.13;5062410;28;20060;-80
2022/01/12 11:55:31;;;;;;;20.48;8.88;;;;;;;0.10;98.90;101136.00;5071795;28;20131;-81
2022/01/12 11:58:03;;;;;;;12.60;7.70;;;;;;;0.02;98.83;101144.38;5065617;28;20051;-82
2022/01/12 12:00:32;;;;;;;14.02;8.20;;;;;;;0.10;100.00;101141.34;5062088;28;20492;-81
2022/01/12 12:03:01;;;;;;;16.20;7.55;;;;;;;0.05;99.23;101130.00;5072713;28;20606;-81
2022/01/12 12:05:30;;;;;;;12.73;7.95;;;;;;;0.08;100.00;101124.50;5070656;28;20083;-82
2022/01/12 12:08:02;;;;;;;15.07;8.45;;;;;;;0.08;98.90;101133.38;5066869;28;20044;-81
2022/01/12 12:10:32;;;;;;;17.55;8.68;;;;;;;0.12;97.26;101150.16;5064045;28;20503;-81
2022/01/12 12:12:59;;;;;;;16.20;8.48;;;;;;;0.16;97.14;101138.38;5053714;28;20083;-80
2022/01/12 12:15:27;;;;;;;11.23;7.50;;;;;;;0.16;96.28;101138.38;5059174;28;20060;-82
2022/01/12 12:17:57;;;;;;;13.77;7.68;;;;;;;0.15;96.48;101133.97;5061286;28;20041;-82
2022/01/12 12:20:26;;;;;;;12.10;6.75;;;;;;;0.21;93.10;101116.78;5060512;28;20175;-81
2022/01/12 12:22:53;;;;;;;10.27;6.53;;;;;;;0.33;91.56;101137.59;5064530;28;20131;-81